EGMD/LYX METAR and TAF weather

Enter ICAO airport designator
Station Type Date Time Source
EGMD METAR 2019/02/23 16:50 UTC NOAA

EGMD 231650Z 07008KT CAVOK 10/07 Q1033


Station Type Date Time Source
EGMD Decoded METAR 2019/02/23 16:50 UTC NOAA

Lydd Airport , United Kingdom (EGMD) 50-57N 000-56E
Feb 23, 2019 - 11:50 AM EST / 2019.02.23 1650 UTC
Wind: from the ENE (070 degrees) at 9 MPH (8 KT):0
Visibility: greater than 7 mile(s):0
Temperature: 50 F (10 C)
Dew Point: 44 F (7 C)
Relative Humidity: 81%
Pressure (altimeter): 30.50 in. Hg (1033 hPa)
ob: EGMD 231650Z 07008KT CAVOK 10/07 Q1033
cycle: 17

Station Type Date Time Source
EGMD TAF UTC NOAA

Error!


Example: see airport list